createdAt,value
2023-02-22T01:11:42.123Z,6.4
2023-02-22T01:29:40.950Z,6.2
2023-02-22T01:35:38.193Z,6.2
2023-02-22T01:59:41.847Z,5.7
2023-02-22T02:29:54.934Z,5.4
2023-02-22T02:36:05.849Z,5.6
2023-02-22T02:41:56.338Z,5.5
2023-02-22T02:47:46.428Z,5.2
2023-02-22T02:53:36.406Z,5.1
2023-02-22T02:59:27.022Z,4.8
2023-02-22T03:05:18.108Z,4.9
2023-02-22T03:11:08.691Z,5.2
2023-02-22T03:16:58.651Z,4.8
2023-02-22T03:22:47.787Z,5
2023-02-22T03:28:37.400Z,4.8
2023-02-22T03:34:27.728Z,4.9
2023-02-22T03:40:18.024Z,5.2
2023-02-22T03:46:08.127Z,5.2
2023-02-22T03:51:58.971Z,5.2
2023-02-22T03:57:49.362Z,5.1
2023-02-22T04:03:39.982Z,4.7
2023-02-22T04:09:30.462Z,5.1
2023-02-22T04:15:20.463Z,5.1
2023-02-22T04:21:11.115Z,5.2
2023-02-22T04:27:00.873Z,4.8
2023-02-22T04:32:49.990Z,5.2
2023-02-22T04:38:38.494Z,4.9
2023-02-22T04:44:27.224Z,5
2023-02-22T04:50:15.711Z,5.1
2023-02-22T04:56:05.354Z,4.7
2023-02-22T05:01:56.202Z,5.1
2023-02-22T05:07:46.509Z,4.9
2023-02-22T05:13:35.285Z,4.9
2023-02-22T05:19:24.158Z,4.9
2023-02-22T05:25:15.106Z,4.8
2023-02-22T05:31:07.619Z,4.9
2023-02-22T05:37:00.549Z,4.7
2023-02-22T05:42:51.574Z,4.6
2023-02-22T05:48:47.153Z,4.3
2023-02-22T05:54:40.142Z,4.6
2023-02-22T06:00:32.452Z,4.6
2023-02-22T06:06:24.567Z,4.3
2023-02-22T06:12:15.524Z,4.4
2023-02-22T06:18:07.705Z,4.5
2023-02-22T06:23:59.375Z,4.4
2023-02-22T06:29:50.621Z,4.5
2023-02-22T06:35:44.516Z,4.6
2023-02-22T06:41:35.909Z,4.5
2023-02-22T06:47:27.987Z,4.5
2023-02-22T06:53:19.300Z,4.5
2023-02-22T06:59:12.410Z,4.6
2023-02-22T07:05:04.117Z,4.6
2023-02-22T07:10:58.827Z,4.7
2023-02-22T07:16:48.934Z,4.4
2023-02-22T07:22:39.857Z,4.6
2023-02-22T07:28:29.540Z,4.8
2023-02-22T07:34:19.505Z,4.8
2023-02-22T07:40:09.956Z,4.7
2023-02-22T07:46:00.298Z,4.9
2023-02-22T07:51:51.562Z,5.1
2023-02-22T07:57:40.895Z,5.2
2023-02-22T08:03:32.913Z,5.5
2023-02-22T08:09:24.484Z,5.6
2023-02-22T08:15:13.509Z,5.8
2023-02-22T08:21:04.124Z,5.9
2023-02-22T08:26:54.712Z,6
2023-02-22T08:32:45.520Z,6.1
2023-02-22T08:38:37.007Z,6.3
2023-02-22T08:44:28.257Z,6.4
2023-02-22T08:50:17.940Z,6.5
2023-02-22T08:56:09.055Z,6.6
2023-02-22T09:01:58.920Z,6.8
2023-02-22T09:07:49.663Z,7
2023-02-22T09:13:40.371Z,7.3
2023-02-22T09:19:31.309Z,7.5
2023-02-22T09:25:25.763Z,7.7
2023-02-22T09:31:18.289Z,8
2023-02-22T09:37:14.242Z,8.3
2023-02-22T09:43:06.750Z,8.4
2023-02-22T09:48:59.668Z,8.5
2023-02-22T09:54:52.194Z,8.5
2023-02-22T10:00:47.662Z,8.6
2023-02-22T10:06:40.183Z,8.7
2023-02-22T10:12:31.801Z,8.9
2023-02-22T10:18:23.747Z,9.1
2023-02-22T10:24:16.330Z,9.3
2023-02-22T10:30:22.284Z,9.4
2023-02-22T10:36:17.770Z,9.5
2023-02-22T10:42:09.534Z,9.5
2023-02-22T10:48:00.555Z,9.6
2023-02-22T10:53:58.524Z,9.6
2023-02-22T10:59:53.164Z,9.6
2023-02-22T11:05:43.301Z,9.6
2023-02-22T11:11:36.577Z,9.7
2023-02-22T11:17:29.098Z,9.9
2023-02-22T11:23:25.228Z,10.1
2023-02-22T11:29:24.070Z,10.4
2023-02-22T11:41:21.574Z,10.8
2023-02-22T11:47:16.479Z,11
2023-02-22T11:53:12.293Z,11.1
2023-02-22T11:59:08.561Z,11.4
2023-02-22T12:05:11.965Z,11.5
2023-02-22T12:11:04.020Z,11.5
2023-02-22T12:16:58.435Z,11.7
2023-02-22T12:22:49.772Z,11.8
2023-02-22T12:28:53.794Z,11.7
2023-02-22T12:35:18.527Z,11.9
2023-02-22T13:00:01.491Z,12.3
2023-02-22T13:06:00.710Z,12.4
2023-02-22T13:11:55.082Z,12.5
2023-02-22T13:24:32.535Z,12.6
2023-02-22T13:37:10.075Z,12.8
2023-02-22T13:43:11.034Z,13.1
2023-02-22T13:55:48.834Z,13.3
2023-02-22T14:01:45.921Z,13.5
2023-02-22T14:07:52.450Z,13.7
2023-02-22T14:13:50.777Z,13.8
2023-02-22T14:19:46.847Z,13.9
2023-02-22T14:25:42.981Z,14.1
2023-02-22T14:31:37.480Z,14
2023-02-22T14:37:34.098Z,13.9
2023-02-22T14:43:37.574Z,13.9
2023-02-22T14:49:29.730Z,13.7
2023-02-22T14:55:27.147Z,13.7
2023-02-22T15:01:46.348Z,13.7
2023-02-22T15:08:10.144Z,13.7
2023-02-22T15:14:28.499Z,13.5
2023-02-22T15:20:36.521Z,13.6
2023-02-22T15:28:01.208Z,13.5
2023-02-22T15:33:51.021Z,13.5
2023-02-22T15:39:45.757Z,13.5
2023-02-22T16:24:15.238Z,12.9
2023-02-22T16:30:25.160Z,12.9
2023-02-22T16:48:20.646Z,12.6
2023-02-22T16:54:12.289Z,12.6
2023-02-22T17:00:02.844Z,12.5
2023-02-22T17:05:54.069Z,12.5
2023-02-22T17:11:45.636Z,12.5
2023-02-22T17:17:37.846Z,12.4
2023-02-22T17:23:27.451Z,12.4
2023-02-22T17:29:17.984Z,12.4
2023-02-22T17:35:11.924Z,12.2
2023-02-22T17:41:03.458Z,12.2
2023-02-22T17:46:57.043Z,12.1
2023-02-22T17:52:51.497Z,12.2
2023-02-22T17:59:09.875Z,12.2
2023-02-22T18:11:20.556Z,12.2
2023-02-22T18:17:26.075Z,12.2
2023-02-22T18:23:31.228Z,12.1
2023-02-22T18:55:47.037Z,12
2023-02-22T19:01:36.782Z,12
2023-02-22T19:07:26.769Z,12
2023-02-22T19:13:19.587Z,11.9
2023-02-22T19:25:44.828Z,11.9
2023-02-22T19:32:06.681Z,11.9
2023-02-22T19:38:02.090Z,11.8
2023-02-22T19:44:06.462Z,11.9
2023-02-22T19:49:59.975Z,11.9
2023-02-22T19:55:52.720Z,11.9
2023-02-22T20:01:55.059Z,11.8
2023-02-22T20:07:48.823Z,11.7
2023-02-22T20:19:55.020Z,11.8
2023-02-22T20:25:55.265Z,11.6
2023-02-22T20:31:57.287Z,11.6
2023-02-22T20:38:02.532Z,11.7
2023-02-22T20:50:12.212Z,11.5
2023-02-22T20:56:29.971Z,11.6
2023-02-22T21:02:22.984Z,11.5
2023-02-22T21:08:14.854Z,11.4
2023-02-22T21:14:08.764Z,11.4
2023-02-22T21:19:59.323Z,11.5
2023-02-22T21:26:09.517Z,11.5
2023-02-22T21:32:01.578Z,11.2
2023-02-22T21:37:56.062Z,11.2
2023-02-22T21:43:54.038Z,11.1
2023-02-22T21:55:59.671Z,11.1
2023-02-22T22:01:56.176Z,11.1
2023-02-22T22:07:51.669Z,11.1
2023-02-22T22:13:43.279Z,11
2023-02-22T22:19:38.703Z,11
2023-02-22T22:25:32.405Z,11.1
2023-02-22T22:31:28.846Z,11
2023-02-22T22:37:24.954Z,10.9
2023-02-22T22:43:16.732Z,10.8
2023-02-22T22:49:11.433Z,10.9
2023-02-22T22:55:15.435Z,11
2023-02-22T23:01:57.940Z,10.9
2023-02-22T23:07:50.350Z,10.8
2023-02-22T23:14:03.290Z,10.9
2023-02-22T23:20:01.596Z,10.7
2023-02-22T23:26:12.805Z,10.9
2023-02-22T23:32:54.131Z,10.9
2023-02-22T23:45:51.941Z,10.6
2023-02-22T23:51:56.669Z,10.7
